createdAt,value
2018-08-06T00:02:24.637Z,20.40
2018-08-06T00:04:52.934Z,20.50
2018-08-06T00:07:21.167Z,20.50
2018-08-06T00:09:49.505Z,20.50
2018-08-06T00:12:17.738Z,20.50
2018-08-06T00:14:46.003Z,20.50
2018-08-06T00:17:14.298Z,20.50
2018-08-06T00:19:42.656Z,20.50
2018-08-06T00:22:10.880Z,20.40
2018-08-06T00:24:39.361Z,20.40
2018-08-06T00:27:07.683Z,20.40
2018-08-06T00:29:35.928Z,20.40
2018-08-06T00:32:04.245Z,20.40
2018-08-06T00:34:32.529Z,20.30
2018-08-06T00:37:00.994Z,20.30
2018-08-06T00:39:29.281Z,20.20
2018-08-06T00:41:57.505Z,20.30
2018-08-06T00:46:53.886Z,20.30
2018-08-06T00:49:22.251Z,20.30
2018-08-06T00:51:50.590Z,20.30
2018-08-06T00:54:18.891Z,20.10
2018-08-06T00:56:47.133Z,20.20
2018-08-06T00:59:15.385Z,20.20
2018-08-06T01:01:43.586Z,20.10
2018-08-06T01:04:11.929Z,20.10
2018-08-06T01:06:40.201Z,20.20
2018-08-06T01:09:09.417Z,20.20
2018-08-06T01:11:37.997Z,20.10
2018-08-06T01:14:06.357Z,20.20
2018-08-06T01:16:34.637Z,20.10
2018-08-06T01:19:03.011Z,20.00
2018-08-06T01:21:31.205Z,20.00
2018-08-06T01:23:59.420Z,19.90
2018-08-06T01:26:27.653Z,19.80
2018-08-06T01:28:55.928Z,19.80
2018-08-06T01:31:24.222Z,19.90
2018-08-06T01:33:52.649Z,19.80
2018-08-06T01:36:20.961Z,19.60
2018-08-06T01:38:49.193Z,19.60
2018-08-06T01:41:17.751Z,19.70
2018-08-06T01:43:46.001Z,19.60
2018-08-06T01:46:14.221Z,19.60
2018-08-06T01:48:42.460Z,19.50
2018-08-06T01:51:10.678Z,19.50
2018-08-06T01:53:38.885Z,19.50
2018-08-06T01:56:07.443Z,19.50
2018-08-06T01:58:35.683Z,19.50
2018-08-06T02:01:04.031Z,19.50
2018-08-06T02:03:32.302Z,19.40
2018-08-06T02:06:00.521Z,19.40
2018-08-06T02:08:31.861Z,19.40
2018-08-06T02:11:00.138Z,19.40
2018-08-06T02:13:28.497Z,19.30
2018-08-06T02:15:56.794Z,19.30
2018-08-06T02:18:25.069Z,19.30
2018-08-06T02:20:53.337Z,19.30
2018-08-06T02:23:21.558Z,19.30
2018-08-06T02:25:49.835Z,19.30
2018-08-06T02:28:18.052Z,19.20
2018-08-06T02:30:46.349Z,19.10
2018-08-06T02:33:14.566Z,19.10
2018-08-06T02:35:42.774Z,19.10
2018-08-06T02:38:11.047Z,19.10
2018-08-06T02:40:39.273Z,19.10
2018-08-06T02:43:07.918Z,19.10
2018-08-06T02:45:36.195Z,19.00
2018-08-06T02:48:04.828Z,19.00
2018-08-06T02:50:33.209Z,18.90
2018-08-06T02:53:01.851Z,18.90
2018-08-06T02:55:30.083Z,18.90
2018-08-06T02:57:58.445Z,18.80
2018-08-06T03:00:26.731Z,18.90
2018-08-06T03:02:55.100Z,18.80
2018-08-06T03:05:23.397Z,18.90
2018-08-06T03:07:51.865Z,18.90
2018-08-06T03:10:20.178Z,18.80
2018-08-06T03:12:48.488Z,18.70
2018-08-06T03:15:16.795Z,18.80
2018-08-06T03:17:45.025Z,18.80
2018-08-06T03:20:14.220Z,18.80
2018-08-06T03:22:42.463Z,18.70
2018-08-06T03:25:12.945Z,18.70
2018-08-06T03:27:41.644Z,18.60
2018-08-06T03:30:12.152Z,18.70
2018-08-06T03:32:40.689Z,18.60
2018-08-06T03:35:10.379Z,18.70
2018-08-06T03:37:38.681Z,18.70
2018-08-06T03:40:07.685Z,18.70
2018-08-06T03:42:35.920Z,18.70
2018-08-06T03:45:05.779Z,18.70
2018-08-06T03:47:33.981Z,18.70
2018-08-06T03:50:02.229Z,18.70
2018-08-06T03:52:30.479Z,18.60
2018-08-06T03:54:58.690Z,18.50
2018-08-06T03:57:27.320Z,18.50
2018-08-06T03:59:55.623Z,18.60
2018-08-06T04:02:23.861Z,18.40
2018-08-06T04:04:52.105Z,18.30
2018-08-06T04:07:20.317Z,18.20
2018-08-06T04:09:48.592Z,18.20
2018-08-06T04:12:16.880Z,18.30
2018-08-06T04:14:45.199Z,18.40
2018-08-06T04:17:13.578Z,18.40
2018-08-06T04:19:42.199Z,18.50
2018-08-06T04:22:10.370Z,18.60
2018-08-06T04:24:38.667Z,18.60
2018-08-06T04:27:07.074Z,18.60
2018-08-06T04:29:35.361Z,18.60
2018-08-06T04:32:03.941Z,18.50
2018-08-06T04:34:32.182Z,18.40
2018-08-06T04:37:00.439Z,18.40
2018-08-06T04:39:28.676Z,18.40
2018-08-06T04:41:56.952Z,18.30
2018-08-06T04:44:25.357Z,18.40
2018-08-06T04:46:53.597Z,18.40
2018-08-06T04:49:21.918Z,18.40
2018-08-06T04:51:50.235Z,18.40
2018-08-06T04:54:18.442Z,18.40
2018-08-06T04:56:46.769Z,18.40
2018-08-06T04:59:15.012Z,18.50
2018-08-06T05:01:43.393Z,18.60
2018-08-06T05:04:11.614Z,18.50
2018-08-06T05:06:39.966Z,18.60
2018-08-06T05:09:09.951Z,18.60
2018-08-06T05:11:38.430Z,18.70
2018-08-06T05:14:06.655Z,18.70
2018-08-06T05:16:34.957Z,18.80
2018-08-06T05:19:03.161Z,18.90
2018-08-06T05:21:31.417Z,19.20
2018-08-06T05:24:00.376Z,19.40
2018-08-06T05:26:29.995Z,19.60
2018-08-06T05:28:58.215Z,19.80
2018-08-06T05:31:27.714Z,19.60
2018-08-06T05:33:56.808Z,19.60
2018-08-06T05:36:25.118Z,19.70
2018-08-06T05:38:54.933Z,19.70
2018-08-06T05:41:24.489Z,19.70
2018-08-06T05:43:56.753Z,19.60
2018-08-06T05:46:25.373Z,19.60
2018-08-06T05:48:53.666Z,19.60
2018-08-06T05:51:21.952Z,19.60
2018-08-06T05:53:50.202Z,19.60
2018-08-06T05:56:18.454Z,19.60
2018-08-06T05:58:46.738Z,19.80
2018-08-06T06:01:15.094Z,19.80
2018-08-06T06:03:43.445Z,19.90
2018-08-06T06:06:11.709Z,19.90
2018-08-06T06:08:40.354Z,20.20
2018-08-06T06:11:09.336Z,20.50
2018-08-06T06:13:37.778Z,20.70
2018-08-06T06:16:07.120Z,20.80
2018-08-06T06:18:35.418Z,20.90
2018-08-06T06:21:03.733Z,20.80
2018-08-06T06:23:31.999Z,20.90
2018-08-06T06:26:00.254Z,21.00
2018-08-06T06:28:28.510Z,21.10
2018-08-06T06:30:56.729Z,20.90
2018-08-06T06:33:24.962Z,21.10
2018-08-06T06:35:53.285Z,20.80
2018-08-06T06:40:49.542Z,21.10
2018-08-06T06:43:18.214Z,21.00
2018-08-06T06:45:46.538Z,21.20
2018-08-06T06:48:14.758Z,21.40
2018-08-06T06:50:43.041Z,21.70
2018-08-06T06:53:11.316Z,22.10
2018-08-06T06:55:39.893Z,22.40
2018-08-06T06:58:08.229Z,22.80
2018-08-06T07:00:36.453Z,23.50
2018-08-06T07:03:05.774Z,24.00
2018-08-06T07:05:33.996Z,24.20
2018-08-06T07:08:02.298Z,24.90
2018-08-06T07:10:30.545Z,25.70
2018-08-06T07:12:58.858Z,25.90
2018-08-06T07:15:27.155Z,26.10
2018-08-06T07:17:55.417Z,26.40
2018-08-06T07:20:24.164Z,26.80
2018-08-06T07:22:52.388Z,27.40
2018-08-06T07:25:20.637Z,27.20
2018-08-06T07:27:48.898Z,26.80
2018-08-06T07:30:17.155Z,27.50
2018-08-06T07:32:45.619Z,27.80
2018-08-06T07:35:14.386Z,28.50
2018-08-06T07:37:42.817Z,28.30
2018-08-06T07:40:13.249Z,28.80
2018-08-06T07:42:41.464Z,28.60
2018-08-06T07:45:13.079Z,28.80
2018-08-06T07:47:41.355Z,28.30
2018-08-06T07:50:12.242Z,27.80
2018-08-06T07:52:40.559Z,28.00
2018-08-06T07:55:08.822Z,27.40
2018-08-06T07:57:37.385Z,26.90
2018-08-06T08:00:08.538Z,26.40
2018-08-06T08:02:37.170Z,26.00
2018-08-06T08:05:07.693Z,25.90
2018-08-06T08:07:35.982Z,26.10
2018-08-06T08:12:34.601Z,26.30
2018-08-06T08:15:03.357Z,26.30
2018-08-06T08:17:31.677Z,26.30
2018-08-06T08:20:00.025Z,26.50
2018-08-06T08:22:28.241Z,26.20
2018-08-06T08:24:56.678Z,26.50
2018-08-06T08:27:25.354Z,26.50
2018-08-06T08:29:53.742Z,26.50
2018-08-06T08:32:22.014Z,26.70
2018-08-06T08:34:50.641Z,26.70
2018-08-06T08:37:19.024Z,26.80
2018-08-06T08:39:47.651Z,27.20
2018-08-06T08:42:15.922Z,27.60
2018-08-06T08:44:44.209Z,28.00
2018-08-06T08:47:12.726Z,28.30
2018-08-06T08:49:40.918Z,28.60
2018-08-06T08:52:09.177Z,28.80
2018-08-06T08:57:05.554Z,29.30
2018-08-06T08:59:34.142Z,29.40
2018-08-06T09:02:02.396Z,29.00
2018-08-06T09:04:30.989Z,29.10
2018-08-06T09:06:59.243Z,29.60
2018-08-06T09:09:27.498Z,29.90
2018-08-06T09:11:55.754Z,30.10
2018-08-06T09:14:24.097Z,30.50
2018-08-06T09:16:52.467Z,30.70
2018-08-06T09:19:20.683Z,31.10
2018-08-06T09:21:48.981Z,30.80
2018-08-06T09:24:17.254Z,31.20
2018-08-06T09:26:45.568Z,31.00
2018-08-06T09:29:13.913Z,31.30
2018-08-06T09:31:42.125Z,31.50
2018-08-06T09:34:10.392Z,31.90
2018-08-06T09:36:38.625Z,32.00
2018-08-06T09:39:09.829Z,31.90
2018-08-06T09:41:38.178Z,31.80
2018-08-06T09:44:06.958Z,31.80
2018-08-06T09:46:35.847Z,32.00
2018-08-06T09:49:04.572Z,31.50
2018-08-06T09:51:32.877Z,31.50
2018-08-06T09:54:01.194Z,31.80
2018-08-06T09:56:29.481Z,32.60
2018-08-06T09:58:57.753Z,32.20
2018-08-06T10:01:31.300Z,31.80
2018-08-06T10:03:59.565Z,32.30
2018-08-06T10:06:28.000Z,32.40
2018-08-06T10:08:56.070Z,32.40
2018-08-06T10:11:24.393Z,33.10
2018-08-06T10:13:52.618Z,33.30
2018-08-06T10:16:20.918Z,33.70
2018-08-06T10:18:49.337Z,32.70
2018-08-06T10:21:17.467Z,32.30
2018-08-06T10:23:46.077Z,32.20
2018-08-06T10:26:14.404Z,32.00
2018-08-06T10:28:42.623Z,32.70
2018-08-06T10:31:10.909Z,33.00
2018-08-06T10:33:39.302Z,32.90
2018-08-06T10:36:07.541Z,32.90
2018-08-06T10:38:35.884Z,33.00
2018-08-06T10:41:04.114Z,32.90
2018-08-06T10:43:32.430Z,33.00
2018-08-06T10:46:00.731Z,33.10
2018-08-06T10:48:29.141Z,33.20
2018-08-06T10:50:57.281Z,32.90
2018-08-06T10:53:25.556Z,33.10
2018-08-06T10:55:53.865Z,33.00
2018-08-06T10:58:22.130Z,33.00
2018-08-06T11:00:50.426Z,32.70
2018-08-06T11:03:18.848Z,32.70
2018-08-06T11:05:48.078Z,32.50
2018-08-06T11:08:16.307Z,32.60
2018-08-06T11:10:44.521Z,32.90
2018-08-06T11:13:12.872Z,33.30
2018-08-06T11:15:41.183Z,33.20
2018-08-06T11:18:09.521Z,33.30
2018-08-06T11:20:37.817Z,33.30
2018-08-06T11:23:06.251Z,33.10
2018-08-06T11:25:34.475Z,33.10
2018-08-06T11:28:02.716Z,33.00
2018-08-06T11:30:30.961Z,33.20
2018-08-06T11:32:59.189Z,33.30
2018-08-06T11:35:27.457Z,33.50
2018-08-06T11:37:56.465Z,33.50
2018-08-06T11:40:24.733Z,33.30
2018-08-06T11:42:52.974Z,33.10
2018-08-06T11:45:22.177Z,33.00
2018-08-06T11:47:50.426Z,33.20
2018-08-06T11:50:18.677Z,33.10
2018-08-06T11:52:46.948Z,33.30
2018-08-06T11:55:15.220Z,33.30
2018-08-06T11:57:43.430Z,33.10
2018-08-06T12:00:17.164Z,32.90
2018-08-06T12:02:45.514Z,33.20
2018-08-06T12:05:13.833Z,33.20
2018-08-06T12:07:42.222Z,33.30
2018-08-06T12:10:14.308Z,33.30
2018-08-06T12:12:43.374Z,33.40
2018-08-06T12:15:11.878Z,33.30
2018-08-06T12:17:40.978Z,33.10
2018-08-06T12:20:11.455Z,33.10
2018-08-06T12:22:40.950Z,33.10
2018-08-06T12:25:10.481Z,32.90
2018-08-06T12:27:38.753Z,32.90
2018-08-06T12:30:10.203Z,32.90
2018-08-06T12:32:38.556Z,32.70
2018-08-06T12:35:06.948Z,32.60
2018-08-06T12:37:35.519Z,32.60
2018-08-06T12:40:04.958Z,32.20
2018-08-06T12:42:33.273Z,32.60
2018-08-06T12:45:01.498Z,32.40
2018-08-06T12:47:29.852Z,32.40
2018-08-06T12:49:58.130Z,32.40
2018-08-06T12:52:26.450Z,32.70
2018-08-06T12:57:22.734Z,32.70
2018-08-06T12:59:51.108Z,33.70
2018-08-06T13:02:19.410Z,32.50
2018-08-06T13:09:44.253Z,32.90
2018-08-06T13:12:12.543Z,32.50
2018-08-06T13:14:40.861Z,32.30
2018-08-06T13:17:09.109Z,32.40
2018-08-06T13:22:06.067Z,32.10
2018-08-06T13:27:02.593Z,32.30
2018-08-06T13:29:30.845Z,32.40
2018-08-06T13:31:59.186Z,32.30
2018-08-06T13:34:27.501Z,32.40
2018-08-06T13:36:56.190Z,32.60
2018-08-06T13:39:24.461Z,32.60
2018-08-06T13:44:20.902Z,32.90
2018-08-06T13:51:45.710Z,33.10
2018-08-06T13:54:13.962Z,32.70
2018-08-06T13:56:42.214Z,32.50
2018-08-06T13:59:10.521Z,32.30
2018-08-06T14:01:38.709Z,32.20
2018-08-06T14:04:07.219Z,32.40
2018-08-06T14:06:35.530Z,32.40
2018-08-06T14:09:05.371Z,32.50
2018-08-06T14:11:33.683Z,32.70
2018-08-06T14:14:01.890Z,32.60
2018-08-06T14:16:30.228Z,32.40
2018-08-06T14:18:58.458Z,32.20
2018-08-06T14:21:26.865Z,32.40
2018-08-06T14:23:55.081Z,32.10
2018-08-06T14:26:23.369Z,32.60
2018-08-06T14:28:51.709Z,32.40
2018-08-06T14:31:20.281Z,32.40
2018-08-06T14:33:48.592Z,32.40
2018-08-06T14:36:16.845Z,32.50
2018-08-06T14:38:45.147Z,32.60
2018-08-06T14:41:13.438Z,32.60
2018-08-06T14:43:41.760Z,32.60
2018-08-06T14:46:10.005Z,32.20
2018-08-06T14:48:38.344Z,32.00
2018-08-06T14:51:06.714Z,32.00
2018-08-06T14:53:34.942Z,32.20
2018-08-06T14:56:03.251Z,32.40
2018-08-06T15:00:59.850Z,32.30
2018-08-06T15:03:28.202Z,32.30
2018-08-06T15:05:56.587Z,32.30
2018-08-06T15:23:13.597Z,31.70
2018-08-06T15:25:41.910Z,31.80
2018-08-06T15:28:10.148Z,31.80
2018-08-06T15:30:38.442Z,31.80
2018-08-06T15:33:06.751Z,31.80
2018-08-06T15:35:35.032Z,31.90
2018-08-06T15:38:03.907Z,32.00
2018-08-06T15:40:32.509Z,31.90
2018-08-06T15:43:00.866Z,31.90
2018-08-06T15:45:29.150Z,31.90
2018-08-06T15:47:57.385Z,31.80
2018-08-06T15:50:25.662Z,31.70
2018-08-06T15:52:53.974Z,31.60
2018-08-06T15:55:22.280Z,31.80
2018-08-06T15:57:50.530Z,31.80
2018-08-06T16:00:19.779Z,31.80
2018-08-06T16:02:48.313Z,31.50
2018-08-06T16:05:16.647Z,31.30
2018-08-06T16:07:45.197Z,31.20
2018-08-06T16:10:14.222Z,31.10
2018-08-06T16:12:42.825Z,31.20
2018-08-06T16:15:12.382Z,31.30
2018-08-06T16:17:41.657Z,31.20
2018-08-06T16:20:12.755Z,31.10
2018-08-06T16:22:41.893Z,30.80
2018-08-06T16:25:11.051Z,30.90
2018-08-06T16:27:39.421Z,31.00
2018-08-06T16:30:11.175Z,31.00
2018-08-06T16:32:39.431Z,30.80
2018-08-06T16:35:07.953Z,30.90
2018-08-06T16:37:36.285Z,30.80
2018-08-06T16:40:05.122Z,30.80
2018-08-06T16:42:33.382Z,30.60
2018-08-06T16:45:01.757Z,30.70
2018-08-06T16:47:30.289Z,30.50
2018-08-06T16:49:58.529Z,30.30
2018-08-06T16:52:26.891Z,30.10
2018-08-06T16:57:23.141Z,30.20
2018-08-06T16:59:51.654Z,30.30
2018-08-06T17:02:19.861Z,30.40
2018-08-06T17:04:48.127Z,30.40
2018-08-06T17:07:16.569Z,30.50
2018-08-06T17:09:44.845Z,30.40
2018-08-06T17:12:13.567Z,30.30
2018-08-06T17:14:41.821Z,30.30
2018-08-06T17:19:38.052Z,30.40
2018-08-06T17:22:06.388Z,30.30
2018-08-06T17:24:34.735Z,30.40
2018-08-06T17:27:02.949Z,30.20
2018-08-06T17:29:31.268Z,30.20
2018-08-06T17:31:59.502Z,30.10
2018-08-06T17:34:27.816Z,30.10
2018-08-06T17:36:56.609Z,30.10
2018-08-06T17:39:24.969Z,30.10
2018-08-06T17:41:53.313Z,30.00
2018-08-06T17:44:21.542Z,30.00
2018-08-06T17:46:49.748Z,30.00
2018-08-06T17:49:18.397Z,29.90
2018-08-06T17:51:46.612Z,29.70
2018-08-06T17:54:14.861Z,29.70
2018-08-06T17:59:11.132Z,29.70
2018-08-06T18:01:39.786Z,29.70
2018-08-06T18:04:08.103Z,29.60
2018-08-06T18:06:36.350Z,29.50
2018-08-06T18:09:08.099Z,29.30
2018-08-06T18:11:36.333Z,29.30
2018-08-06T18:14:04.685Z,29.20
2018-08-06T18:16:33.037Z,29.10
2018-08-06T18:19:01.342Z,29.10
2018-08-06T18:21:29.620Z,29.00
2018-08-06T18:23:57.957Z,28.80
2018-08-06T18:26:26.245Z,28.80
2018-08-06T18:28:54.519Z,28.80
2018-08-06T18:31:22.760Z,28.80
2018-08-06T18:33:51.026Z,28.70
2018-08-06T18:36:19.246Z,28.60
2018-08-06T18:38:47.956Z,28.60
2018-08-06T18:41:16.238Z,28.60
2018-08-06T18:43:44.486Z,28.60
2018-08-06T18:46:12.793Z,28.50
2018-08-06T18:48:41.061Z,28.30
2018-08-06T18:51:09.347Z,28.40
2018-08-06T18:53:37.578Z,28.20
2018-08-06T18:56:05.935Z,28.10
2018-08-06T18:58:34.177Z,28.10
2018-08-06T19:01:02.467Z,28.00
2018-08-06T19:03:31.046Z,27.90
2018-08-06T19:06:02.365Z,27.90
2018-08-06T19:08:30.906Z,27.80
2018-08-06T19:10:59.190Z,27.70
2018-08-06T19:13:32.921Z,27.70
2018-08-06T19:16:01.165Z,27.60
2018-08-06T19:19:37.518Z,27.50
2018-08-06T19:22:05.980Z,27.30
2018-08-06T19:24:40.143Z,27.10
2018-08-06T19:27:08.443Z,27.10
2018-08-06T19:29:36.712Z,27.00
2018-08-06T19:32:05.093Z,27.10
2018-08-06T19:34:33.307Z,27.10
2018-08-06T19:38:05.694Z,27.00
2018-08-06T19:40:33.955Z,26.90
2018-08-06T19:43:08.185Z,26.80
2018-08-06T19:45:36.511Z,26.70
2018-08-06T19:48:04.790Z,26.60
2018-08-06T19:50:39.714Z,26.60
2018-08-06T19:53:08.039Z,26.50
2018-08-06T19:55:41.494Z,26.50
2018-08-06T19:58:09.870Z,26.50
2018-08-06T20:00:38.149Z,26.40
2018-08-06T20:03:06.558Z,26.40
2018-08-06T20:05:34.955Z,26.30
2018-08-06T20:08:04.062Z,26.20
2018-08-06T20:10:32.394Z,26.30
2018-08-06T20:13:00.651Z,26.20
2018-08-06T20:15:29.024Z,26.20
2018-08-06T20:17:57.257Z,26.10
2018-08-06T20:20:25.553Z,26.10
2018-08-06T20:25:22.090Z,26.00
2018-08-06T20:27:50.942Z,25.90
2018-08-06T20:30:20.553Z,25.90
2018-08-06T20:32:49.001Z,25.90
2018-08-06T20:35:17.904Z,25.80
2018-08-06T20:37:46.136Z,25.70
2018-08-06T20:42:43.528Z,25.80
2018-08-06T20:45:14.465Z,25.70
2018-08-06T20:47:43.193Z,25.70
2018-08-06T20:50:13.207Z,25.60
2018-08-06T20:52:41.583Z,25.50
2018-08-06T20:55:10.763Z,25.50
2018-08-06T20:57:39.805Z,25.50
2018-08-06T21:00:10.365Z,25.30
2018-08-06T21:02:39.034Z,25.30
2018-08-06T21:05:07.263Z,25.30
2018-08-06T21:07:35.550Z,25.30
2018-08-06T21:10:04.717Z,25.30
2018-08-06T21:12:32.937Z,25.20
2018-08-06T21:15:01.279Z,25.20
2018-08-06T21:17:29.497Z,25.10
2018-08-06T21:19:57.698Z,25.10
2018-08-06T21:22:25.993Z,24.90
2018-08-06T21:24:55.314Z,24.80
2018-08-06T21:27:23.585Z,24.80
2018-08-06T21:29:51.809Z,24.90
2018-08-06T21:32:20.113Z,24.80
2018-08-06T21:34:48.406Z,24.70
2018-08-06T21:37:16.617Z,24.60
2018-08-06T21:39:44.919Z,24.60
2018-08-06T21:42:13.224Z,24.60
2018-08-06T21:44:41.522Z,24.70
2018-08-06T21:47:09.773Z,24.60
2018-08-06T21:49:38.000Z,24.60
2018-08-06T21:54:34.342Z,24.50
2018-08-06T21:57:02.637Z,24.50
2018-08-06T22:01:58.913Z,24.40
2018-08-06T22:04:27.177Z,24.40
2018-08-06T22:06:55.503Z,24.40
2018-08-06T22:09:23.817Z,24.30
2018-08-06T22:11:52.073Z,24.30
2018-08-06T22:14:20.319Z,24.30
2018-08-06T22:16:48.668Z,24.20
2018-08-06T22:19:16.923Z,24.20
2018-08-06T22:21:45.173Z,24.10
2018-08-06T22:24:13.461Z,24.00
2018-08-06T22:26:41.721Z,24.10
2018-08-06T22:29:09.997Z,24.00
2018-08-06T22:31:38.238Z,24.00
2018-08-06T22:34:06.514Z,23.80
2018-08-06T22:36:34.769Z,23.80
2018-08-06T22:39:03.351Z,23.80
2018-08-06T22:41:31.558Z,23.70
2018-08-06T22:43:59.904Z,23.70
2018-08-06T22:46:28.130Z,23.80
2018-08-06T22:48:56.378Z,23.60
2018-08-06T22:51:24.639Z,23.50
2018-08-06T22:53:52.942Z,23.60
2018-08-06T22:56:21.209Z,23.70
2018-08-06T22:58:49.509Z,23.60
2018-08-06T23:01:17.743Z,23.60
2018-08-06T23:03:46.065Z,23.50
2018-08-06T23:06:14.389Z,23.50
2018-08-06T23:08:42.700Z,23.50
2018-08-06T23:11:10.969Z,23.40
2018-08-06T23:13:39.331Z,23.40
2018-08-06T23:16:07.611Z,23.40
2018-08-06T23:18:35.858Z,23.40
2018-08-06T23:21:04.157Z,23.40
2018-08-06T23:23:32.447Z,23.40
2018-08-06T23:26:00.707Z,23.50
2018-08-06T23:28:28.981Z,23.40
2018-08-06T23:30:57.221Z,23.40
2018-08-06T23:33:25.529Z,23.30
2018-08-06T23:35:53.823Z,23.20
2018-08-06T23:38:22.106Z,23.10
2018-08-06T23:40:50.430Z,23.00
2018-08-06T23:43:18.693Z,23.00
2018-08-06T23:45:46.917Z,22.90
2018-08-06T23:48:15.158Z,22.90
2018-08-06T23:50:43.779Z,22.90
2018-08-06T23:53:12.193Z,22.80
2018-08-06T23:55:40.513Z,22.90
2018-08-06T23:58:08.810Z,22.70
